Miami, Indiana
Current Conditions -  °F | °C
As of 4:58 AM on Sunday 23 Nov 2014 (Local Time) from KGUS Reporting Station
Overcast Overcast  
Wind Chill: 41°   Ceiling: 4800
Heat Index: 46°   Visibility: 10mi
Dew Point: 46°   Wind: 9mph
Humidity: 100%   Direction: 150°SSE
Pressure: 29.89"   Gusts: NA
Location:  40.61°N, 86.11°W
Report Text: KGUS 230958Z AUTO 15008KT 10SM BKN048 OVC055 08/08 A2989 RMK AO2 RAE0922DZB0922E0925 SLP127 P0001 T00760076
Loading
Personal Weather Stations






























Interactive Weather Map New forecast layout! Learn more

10-Day Weather Forecast

Advertisements
Track Severe Weather on mobile